Time;durP1;ratioP1;P1;durP2;ratioP2;P2;SDS_P1;SDS_P2;PMS_P1;PMS_P2;Temp;Humidity;BMP_temperature;BMP_pressure;BME280_temperature;BME280_humidity;BME280_pressure;Samples;Min_cycle;Max_cycle;Signal;HPM_P1;HPM_P2
2023/11/20 00:06:44;;;;;;;;;;;12.20;99.90;;;;;;21143700;27;19949;-89
2023/11/20 00:16:45;;;;;;;;;;;12.20;99.90;;;;;;21150455;27;19919;-88
2023/11/20 00:26:46;;;;;;;;;;;12.20;99.90;;;;;;21161789;27;19957;-88
2023/11/20 00:36:47;;;;;;;;;;;12.20;99.90;;;;;;21145462;27;19931;-88
2023/11/20 00:46:48;;;;;;;;;;;12.40;99.90;;;;;;21153193;27;20280;-88
2023/11/20 00:56:49;;;;;;;;;;;12.10;99.90;;;;;;21147477;27;19912;-87
2023/11/20 01:06:49;;;;;;;;;;;12.10;99.90;;;;;;21123711;27;20061;-88
2023/11/20 01:16:50;;;;;;;;;;;12.00;99.90;;;;;;21147489;27;19999;-88
2023/11/20 01:26:53;;;;;;;;;;;11.90;99.90;;;;;;21107306;27;20333;-88
2023/11/20 01:36:54;;;;;;;;;;;11.80;99.90;;;;;;21131668;27;19915;-88
2023/11/20 01:46:55;;;;;;;;;;;11.80;99.90;;;;;;21141642;27;19916;-89
2023/11/20 01:56:56;;;;;;;;;;;11.80;99.90;;;;;;21134480;27;19998;-88
2023/11/20 02:06:58;;;;;;;;;;;11.80;99.90;;;;;;21148680;27;19977;-90
2023/11/20 02:16:58;;;;;;;;;;;11.80;99.90;;;;;;21150347;27;20379;-87
2023/11/20 02:27:05;;;;;;;;;;;11.80;99.90;;;;;;21154306;27;20487;-89
2023/11/20 02:37:06;;;;;;;;;;;11.60;99.90;;;;;;21143158;27;19916;-88
2023/11/20 02:47:07;;;;;;;;;;;11.50;99.90;;;;;;21132523;27;19962;-88
2023/11/20 02:57:08;;;;;;;;;;;11.50;99.90;;;;;;21127179;28;19938;-89
2023/11/20 03:07:08;;;;;;;;;;;11.30;99.90;;;;;;21185897;28;19962;-88
2023/11/20 03:17:09;;;;;;;;;;;11.30;99.90;;;;;;21176574;28;19962;-89
2023/11/20 03:27:10;;;;;;;;;;;11.30;99.90;;;;;;21182150;28;19961;-88
2023/11/20 03:37:10;;;;;;;;;;;11.20;99.90;;;;;;21156317;28;20366;-89
2023/11/20 03:47:11;;;;;;;;;;;11.10;99.90;;;;;;21157528;28;19923;-88
2023/11/20 03:57:13;;;;;;;;;;;10.80;99.90;;;;;;21192309;28;19911;-88
2023/11/20 04:07:13;;;;;;;;;;;10.90;99.90;;;;;;21147482;27;19916;-88
2023/11/20 04:17:14;;;;;;;;;;;10.70;99.90;;;;;;21156507;27;19923;-88
2023/11/20 04:27:15;;;;;;;;;;;10.60;99.90;;;;;;21157330;27;20314;-89
2023/11/20 04:37:16;;;;;;;;;;;10.70;99.90;;;;;;21153028;27;19919;-89
2023/11/20 04:47:16;;;;;;;;;;;10.80;99.90;;;;;;21168514;27;19919;-89
2023/11/20 04:57:17;;;;;;;;;;;10.70;99.90;;;;;;21141428;27;20386;-89
2023/11/20 05:07:18;;;;;;;;;;;10.60;99.90;;;;;;21156338;27;20056;-88
2023/11/20 05:17:20;;;;;;;;;;;10.60;99.90;;;;;;21128045;27;20287;-88
2023/11/20 05:27:20;;;;;;;;;;;10.60;99.90;;;;;;21174690;27;19916;-87
2023/11/20 05:37:23;;;;;;;;;;;10.60;99.90;;;;;;21122426;27;19923;-88
2023/11/20 05:47:23;;;;;;;;;;;10.40;99.90;;;;;;21141983;27;20286;-88
2023/11/20 05:57:24;;;;;;;;;;;10.50;99.90;;;;;;21131867;27;19912;-88
2023/11/20 06:07:26;;;;;;;;;;;10.50;99.90;;;;;;21148291;27;19963;-87
2023/11/20 06:17:27;;;;;;;;;;;10.50;99.90;;;;;;21193435;27;19918;-86
2023/11/20 06:27:30;;;;;;;;;;;10.50;99.90;;;;;;21142495;27;20390;-89
2023/11/20 06:37:31;;;;;;;;;;;10.50;99.90;;;;;;21152589;27;20332;-88
2023/11/20 06:47:31;;;;;;;;;;;10.40;99.90;;;;;;21149026;27;20353;-87
2023/11/20 06:57:32;;;;;;;;;;;10.50;99.90;;;;;;21135000;28;19995;-86
2023/11/20 07:07:41;;;;;;;;;;;10.40;99.90;;;;;;21169793;28;20398;-87
2023/11/20 07:17:42;;;;;;;;;;;10.40;99.90;;;;;;21155234;28;19912;-87
2023/11/20 07:27:42;;;;;;;;;;;10.40;99.90;;;;;;21127947;28;19946;-87
2023/11/20 07:37:43;;;;;;;;;;;10.40;99.90;;;;;;21134189;28;19916;-88
2023/11/20 07:47:44;;;;;;;;;;;10.40;99.90;;;;;;21140515;27;19922;-87
2023/11/20 07:57:46;;;;;;;;;;;10.40;99.90;;;;;;21164132;27;19927;-87
2023/11/20 08:07:47;;;;;;;;;;;10.40;99.90;;;;;;21140282;27;20401;-87
2023/11/20 08:17:48;;;;;;;;;;;10.40;99.90;;;;;;21141012;27;19912;-87
2023/11/20 08:27:49;;;;;;;;;;;10.40;99.90;;;;;;21169443;27;19930;-89
2023/11/20 08:37:50;;;;;;;;;;;10.40;99.90;;;;;;21142162;27;19916;-88
2023/11/20 08:47:50;;;;;;;;;;;10.50;99.90;;;;;;21148993;27;19959;-86
2023/11/20 08:57:51;;;;;;;;;;;10.50;99.90;;;;;;21173604;27;20378;-85
2023/11/20 09:07:52;;;;;;;;;;;10.60;99.90;;;;;;21148476;27;19916;-86
2023/11/20 09:17:52;;;;;;;;;;;10.70;99.90;;;;;;21181694;27;19917;-86
2023/11/20 09:27:53;;;;;;;;;;;10.70;99.90;;;;;;21151632;27;20398;-87
2023/11/20 09:37:54;;;;;;;;;;;10.90;99.90;;;;;;21142537;27;19915;-85
2023/11/20 09:47:58;;;;;;;;;;;11.70;99.90;;;;;;21137170;27;20020;-86
2023/11/20 09:57:58;;;;;;;;;;;12.90;99.90;;;;;;21163330;27;20259;-87
2023/11/20 10:07:59;;;;;;;;;;;12.30;99.90;;;;;;21123350;27;20329;-88
2023/11/20 10:18:00;;;;;;;;;;;12.90;99.90;;;;;;21133756;27;19915;-89
2023/11/20 10:28:01;;;;;;;;;;;12.40;99.90;;;;;;21119661;27;19920;-87
2023/11/20 10:38:01;;;;;;;;;;;12.30;99.90;;;;;;21106628;27;19915;-88
2023/11/20 10:48:02;;;;;;;;;;;12.70;99.90;;;;;;21129547;27;20376;-88
2023/11/20 10:58:03;;;;;;;;;;;13.20;99.90;;;;;;21125399;27;19911;-87
2023/11/20 11:08:09;;;;;;;;;;;13.00;99.90;;;;;;21133990;28;20263;-87
2023/11/20 11:18:14;;;;;;;;;;;12.90;99.90;;;;;;21138435;27;20287;-87
2023/11/20 11:28:17;;;;;;;;;;;13.50;99.90;;;;;;21146244;27;20006;-88
2023/11/20 11:38:18;;;;;;;;;;;13.00;99.90;;;;;;21132464;27;19916;-87
2023/11/20 11:48:19;;;;;;;;;;;13.00;99.90;;;;;;21123404;27;19950;-89
2023/11/20 11:58:20;;;;;;;;;;;13.30;99.90;;;;;;21137586;27;19957;-89
2023/11/20 12:08:22;;;;;;;;;;;13.30;99.90;;;;;;21145234;27;19946;-87
2023/11/20 12:18:32;;;;;;;;;;;14.00;99.90;;;;;;21118357;27;19919;-86
2023/11/20 12:28:33;;;;;;;;;;;13.20;99.90;;;;;;21111819;27;20440;-86
2023/11/20 12:38:35;;;;;;;;;;;13.00;99.90;;;;;;21124239;27;19916;-89
2023/11/20 12:48:39;;;;;;;;;;;12.80;99.90;;;;;;21131560;27;19919;-88
2023/11/20 12:58:41;;;;;;;;;;;12.60;99.90;;;;;;21136055;27;19916;-89
2023/11/20 13:08:41;;;;;;;;;;;12.40;99.90;;;;;;21134342;27;19922;-90
2023/11/20 13:18:49;;;;;;;;;;;12.40;99.90;;;;;;21108696;27;19912;-89
2023/11/20 13:28:49;;;;;;;;;;;12.20;99.90;;;;;;21142281;27;19915;-89
2023/11/20 13:38:50;;;;;;;;;;;12.30;99.90;;;;;;21161890;27;19968;-90
2023/11/20 13:48:51;;;;;;;;;;;12.20;99.90;;;;;;21166281;27;19916;-89
2023/11/20 13:58:51;;;;;;;;;;;12.10;99.90;;;;;;21190463;27;19933;-88
2023/11/20 14:08:52;;;;;;;;;;;11.90;99.90;;;;;;21189473;27;20378;-90
2023/11/20 14:18:55;;;;;;;;;;;11.80;99.90;;;;;;21116246;27;22158;-88
2023/11/20 14:28:56;;;;;;;;;;;11.70;99.90;;;;;;21124165;27;19956;-89
2023/11/20 14:38:57;;;;;;;;;;;11.50;99.90;;;;;;21163330;27;19915;-89
2023/11/20 14:48:58;;;;;;;;;;;11.40;99.90;;;;;;21158894;27;19922;-88
2023/11/20 14:58:59;;;;;;;;;;;11.30;99.90;;;;;;21160940;27;19911;-88
2023/11/20 15:09:00;;;;;;;;;;;11.20;99.90;;;;;;21146637;28;19923;-90
2023/11/20 15:19:01;;;;;;;;;;;11.10;99.90;;;;;;21118533;28;19919;-88
2023/11/20 15:29:02;;;;;;;;;;;11.00;99.90;;;;;;21133219;28;19915;-86
2023/11/20 15:39:04;;;;;;;;;;;10.90;99.90;;;;;;21166348;27;19919;-89
2023/11/20 15:49:05;;;;;;;;;;;10.80;99.90;;;;;;21123738;28;19916;-86
2023/11/20 15:59:06;;;;;;;;;;;10.70;99.90;;;;;;21130159;28;20435;-87
2023/11/20 16:09:06;;;;;;;;;;;10.60;99.90;;;;;;21147853;27;20437;-88
2023/11/20 16:19:07;;;;;;;;;;;10.50;99.90;;;;;;21159432;27;19916;-88
2023/11/20 16:29:10;;;;;;;;;;;10.40;99.90;;;;;;21142785;27;20039;-89
2023/11/20 16:39:14;;;;;;;;;;;10.40;99.90;;;;;;21122545;27;19959;-88
2023/11/20 16:49:15;;;;;;;;;;;10.30;99.90;;;;;;21136990;27;19916;-88
2023/11/20 16:59:15;;;;;;;;;;;10.20;99.90;;;;;;21113152;27;19959;-88
2023/11/20 17:09:16;;;;;;;;;;;10.10;99.90;;;;;;21134661;27;19916;-88
2023/11/20 17:19:17;;;;;;;;;;;10.10;99.90;;;;;;21154365;27;19912;-88
2023/11/20 17:29:17;;;;;;;;;;;10.10;99.90;;;;;;21133803;27;19916;-88
2023/11/20 17:39:18;;;;;;;;;;;10.00;99.90;;;;;;21116040;27;19916;-88
2023/11/20 17:49:19;;;;;;;;;;;9.90;99.90;;;;;;21127640;27;19915;-88
2023/11/20 17:59:20;;;;;;;;;;;9.90;99.90;;;;;;21117601;27;19912;-88
2023/11/20 18:09:21;;;;;;;;;;;9.70;99.90;;;;;;21121712;27;19916;-88
2023/11/20 18:19:21;;;;;;;;;;;9.50;99.90;;;;;;21125368;27;19934;-88
2023/11/20 18:29:22;;;;;;;;;;;9.40;99.90;;;;;;21149501;27;19960;-88
2023/11/20 18:39:23;;;;;;;;;;;9.30;99.90;;;;;;21159329;27;19915;-87
2023/11/20 18:49:24;;;;;;;;;;;9.10;99.90;;;;;;21161647;27;20578;-87
2023/11/20 18:59:25;;;;;;;;;;;8.90;99.90;;;;;;21131103;27;19912;-87
2023/11/20 19:09:25;;;;;;;;;;;8.80;99.90;;;;;;21167957;28;20018;-86
2023/11/20 19:19:27;;;;;;;;;;;8.70;99.90;;;;;;21171493;28;20337;-86
2023/11/20 19:29:28;;;;;;;;;;;8.00;99.90;;;;;;21153197;28;19993;-85
2023/11/20 19:39:29;;;;;;;;;;;7.90;99.90;;;;;;21192707;27;19916;-85
2023/11/20 19:49:30;;;;;;;;;;;7.90;99.90;;;;;;21171515;27;20371;-84
2023/11/20 19:59:30;;;;;;;;;;;8.20;99.90;;;;;;21182867;27;19946;-85
2023/11/20 20:09:35;;;;;;;;;;;8.20;99.90;;;;;;21131912;27;19944;-85
2023/11/20 20:19:43;;;;;;;;;;;8.20;99.90;;;;;;21159959;27;20396;-85
2023/11/20 20:29:45;;;;;;;;;;;8.70;99.90;;;;;;21118843;27;19916;-85
2023/11/20 20:39:46;;;;;;;;;;;8.90;99.90;;;;;;21136431;27;19916;-85
2023/11/20 20:49:49;;;;;;;;;;;8.90;99.90;;;;;;21139369;27;19915;-85
2023/11/20 20:59:50;;;;;;;;;;;8.80;99.90;;;;;;21189697;27;19920;-84
2023/11/20 21:09:51;;;;;;;;;;;8.80;99.90;;;;;;21141980;27;19924;-85
2023/11/20 21:19:51;;;;;;;;;;;8.80;99.90;;;;;;21157049;27;19939;-85
2023/11/20 21:29:52;;;;;;;;;;;9.10;99.90;;;;;;21142152;27;19920;-87
2023/11/20 21:39:53;;;;;;;;;;;9.30;99.90;;;;;;21152644;27;19919;-86
2023/11/20 21:49:53;;;;;;;;;;;9.30;99.90;;;;;;21164551;27;19915;-86
2023/11/20 21:59:54;;;;;;;;;;;9.20;99.90;;;;;;21143392;27;19912;-86
2023/11/20 22:09:55;;;;;;;;;;;8.70;99.90;;;;;;21128831;27;20320;-88
2023/11/20 22:19:56;;;;;;;;;;;8.60;99.90;;;;;;21133709;27;19912;-87
2023/11/20 22:29:56;;;;;;;;;;;8.50;99.90;;;;;;21146082;27;19919;-86
2023/11/20 22:39:57;;;;;;;;;;;8.30;99.90;;;;;;21182310;27;19923;-86
2023/11/20 22:49:58;;;;;;;;;;;8.10;99.90;;;;;;21145077;28;19971;-86
2023/11/20 23:00:00;;;;;;;;;;;8.20;99.90;;;;;;21145835;28;19919;-86
2023/11/20 23:10:00;;;;;;;;;;;8.20;99.90;;;;;;21131812;28;19915;-86
2023/11/20 23:20:01;;;;;;;;;;;8.10;99.90;;;;;;21144335;28;19956;-86
2023/11/20 23:30:02;;;;;;;;;;;8.10;99.90;;;;;;21147231;28;19922;-86
2023/11/20 23:40:03;;;;;;;;;;;8.10;99.90;;;;;;21162259;28;19919;-86
2023/11/20 23:50:04;;;;;;;;;;;8.10;99.90;;;;;;21159786;28;19920;-87
